Norwegian Sky — C6PZ8 — position and weather

sailwx.info

Track history (hours):
 
Tides and Currents Weather Stations Pressure Air Temp Water Temp Dewpoint Dewpoint Depression Visibility Wind Speed Wind Dir Waves Ship Positions

Norwegian Sky (Norway)

Operator: Norwegian Cruise Line

Last reported at 2018-Jul-22 02:00 UTC. Time now 2018-Jul-22 03:21 UTC.
Position N 26°06' W 077°48'.

Length 259 m; draft 8.2 m.

Type: Ship. MMSI: 308865000.

Wind from 200 at 10 knots

Barometer 1016.9 mb
Air temperature 28.4 ° C
Visibility: greater than 10.8 NM
Dewpoint 25.7 ° C
Water temperature 28.0 ° C

Date/timePositionNaut miles runAvg speedWind from/ knotsBaromVisibWave heightAir tempDewpointWater temp
2018-Jul-22 02:00N 26°06' W 077°48'83 3.5 200 / 101016.910.8 28.425.728.0
2018-Jul-21 02:34N 26°08' W 079°20'110.0
2018-Jul-21 02:30N 26°07' W 079°21'510.2
2018-Jul-21 02:00N 26°03' W 079°24'510.1
2018-Jul-21 01:30N 25°60' W 079°28'5 9.1
2018-Jul-21 01:00N 25°57' W 079°32'5 9.3
2018-Jul-21 00:30N 25°53' W 079°35'5 9.3
2018-Jul-21 00:00N 25°50' W 079°39'5 9.7
2018-Jul-20 23:30N 25°47' W 079°44'612.6
2018-Jul-20 23:00N 25°46' W 079°50'611.9
2018-Jul-20 22:30N 25°46' W 079°57'611.8
2018-Jul-20 22:00N 25°46' W 080°04'510.2
2018-Jul-20 21:30N 25°46' W 080°09'1 1.6
2018-Jul-20 21:00N 25°47' W 080°10'0 0.2
2018-Jul-20 20:29N 25°47' W 080°10'0 0.0
2018-Jul-20 19:58N 25°47' W 080°10'0 0.0
2018-Jul-20 19:28N 25°47' W 080°10'0 0.0
2018-Jul-20 18:58N 25°47' W 080°10'0 0.0
2018-Jul-20 18:28N 25°47' W 080°10'0 0.0
2018-Jul-20 18:00N 25°47' W 080°10'0 0.0
2018-Jul-20 17:24N 25°47' W 080°10'0 0.0
2018-Jul-20 17:00N 25°47' W 080°10'6654.0
2018-Jul-20 17:00N 25°42' W 080°06'611.8 190 / 81017.210.8 29.924.027.0
2018-Jul-20 16:30N 25°47' W 080°10'0 0.0
2018-Jul-20 16:00N 25°47' W 080°10'0 0.0
2018-Jul-20 15:29N 25°47' W 080°10'0 0.0
2018-Jul-20 14:59N 25°47' W 080°10'0 0.0
2018-Jul-20 14:29N 25°47' W 080°10'0 0.0
2018-Jul-20 13:59N 25°47' W 080°10'0 0.0
2018-Jul-20 13:29N 25°47' W 080°10'0 0.0
2018-Jul-20 12:58N 25°47' W 080°10'0 0.0
2018-Jul-20 12:28N 25°47' W 080°10'0 0.0
2018-Jul-20 11:58N 25°47' W 080°10'0 0.0
2018-Jul-20 11:28N 25°47' W 080°10'0 0.0
2018-Jul-20 11:00N 25°47' W 080°10'0 0.0
2018-Jul-20 10:24N 25°47' W 080°10'0 0.0
2018-Jul-20 10:00N 25°47' W 080°10'0 0.6
2018-Jul-20 09:30N 25°46' W 080°10'5 9.4
2018-Jul-20 09:00N 25°46' W 080°05'5 9.0
2018-Jul-20 08:29N 25°47' W 079°59'4 7.8
2018-Jul-20 08:00N 25°47' W 079°55'3 6.8
2018-Jul-20 07:30N 25°48' W 079°51'3 6.4
2018-Jul-20 07:00N 25°48' W 079°48'3 6.2
2018-Jul-20 06:29N 25°48' W 079°44'3 6.1
2018-Jul-20 06:00N 25°49' W 079°41'3 6.1
2018-Jul-20 05:30N 25°51' W 079°39'3 6.2
2018-Jul-20 05:00N 25°53' W 079°36'3 6.3
2018-Jul-20 04:30N 25°55' W 079°34'3 6.4
2018-Jul-20 04:00N 25°57' W 079°31'3 6.4
2018-Jul-20 03:29N 25°60' W 079°29'3 6.3
2018-Jul-20 02:59N 26°02' W 079°26'3 6.4
2018-Jul-20 02:29N 26°04' W 079°24'4 7.8
2018-Jul-20 02:00N 26°07' W 079°21'83 4.4
2018-Jul-19 07:00N 26°06' W 077°48'47 7.9 150 / 131016.110.8 26.020.230.0
2018-Jul-19 01:00N 25°24' W 077°24'25 4.1 130 / 81018.110.8 28.523.628.0
2018-Jul-18 19:00N 25°00' W 077°18'140 8.1 150 / 151019.810.8 31.022.730.0
2018-Jul-18 01:45N 26°18' W 079°27'3 8.9
2018-Jul-18 01:25N 26°21' W 079°28'6 8.4
2018-Jul-18 00:45N 26°26' W 079°27'3 8.8
2018-Jul-18 00:25N 26°29' W 079°25'38 3.7
2018-Jul-17 14:00N 26°30' W 078°42'28 3.9 190 / 171020.210.8 28.024.729.0
2018-Jul-17 07:00N 26°24' W 079°12'12 4.7 180 / 51019.0 28.023.930.0
2018-Jul-17 04:29N 26°25' W 079°25'4 6.4
2018-Jul-17 03:54N 26°21' W 079°26'3 6.6
2018-Jul-17 03:30N 26°19' W 079°28'3 6.8
2018-Jul-17 03:00N 26°15' W 079°28'3 6.8
2018-Jul-17 02:30N 26°12' W 079°29'3 6.7
2018-Jul-17 02:00N 26°10' W 079°32'3 7.0
2018-Jul-17 01:30N 26°06' W 079°33'3 7.0
2018-Jul-17 01:00N 26°03' W 079°35'4 8.2
2018-Jul-17 00:29N 25°59' W 079°37'1212.8
2018-Jul-16 23:30N 25°48' W 079°42'611.9
2018-Jul-16 23:00N 25°47' W 079°49'510.6
2018-Jul-16 22:30N 25°47' W 079°55'510.8
2018-Jul-16 22:00N 25°47' W 080°01'510.7
2018-Jul-16 21:31N 25°46' W 080°06'4 6.8
2018-Jul-16 20:59N 25°47' W 080°10'0 0.0
2018-Jul-16 20:29N 25°47' W 080°10'0 0.0
2018-Jul-16 19:59N 25°47' W 080°10'0 0.0
2018-Jul-16 19:23N 25°47' W 080°10'0 0.0
2018-Jul-16 18:58N 25°47' W 080°10'0 0.0
2018-Jul-16 18:28N 25°47' W 080°10'0 0.0
2018-Jul-16 17:58N 25°47' W 080°10'0 0.0
2018-Jul-16 17:28N 25°47' W 080°10'0 0.0
2018-Jul-16 16:55N 25°47' W 080°10'0 0.0
2018-Jul-16 16:30N 25°47' W 080°10'0 0.0
2018-Jul-16 16:00N 25°47' W 080°10'0 0.0
2018-Jul-16 15:30N 25°47' W 080°10'0 0.0
2018-Jul-16 14:57N 25°47' W 080°10'0 0.0
2018-Jul-16 14:30N 25°47' W 080°10'0 0.0
2018-Jul-16 14:00N 25°47' W 080°10'0 0.0
2018-Jul-16 13:30N 25°47' W 080°10'0 0.0
2018-Jul-16 12:59N 25°47' W 080°10'0 0.0
2018-Jul-16 12:29N 25°47' W 080°10'0 0.0
2018-Jul-16 11:56N 25°47' W 080°10'0 0.0
2018-Jul-16 11:29N 25°47' W 080°10'0 0.0
2018-Jul-16 10:58N 25°47' W 080°10'0 0.0
2018-Jul-16 10:28N 25°47' W 080°10'0 1.0
2018-Jul-16 10:01N 25°47' W 080°10'1 2.8
2018-Jul-16 09:31N 25°46' W 080°09'611.1
2018-Jul-16 09:00N 25°47' W 080°03'612.2
2018-Jul-16 08:31N 25°47' W 079°56'714.3
2018-Jul-16 08:01N 25°47' W 079°48'714.4
2018-Jul-16 07:31N 25°48' W 079°40'713.5
2018-Jul-16 07:00N 25°53' W 079°35'714.1
2018-Jul-16 06:30N 25°58' W 079°29'714.2
2018-Jul-16 06:00N 26°03' W 079°24'714.7
2018-Jul-16 05:30N 26°08' W 079°17'81 3.0
2018-Jul-15 03:00N 26°00' W 077°48'13 3.3 140 / 81018.510.8 27.019.830.0
2018-Jul-14 23:00N 25°48' W 077°54'0 0.0 070 / 71018.227.0 29.024.925.0
2018-Jul-14 16:00N 25°48' W 077°54'80 6.0 360 / 101018.010.8 28.023.930.0
2018-Jul-14 02:48N 26°08' W 079°20'310.5
2018-Jul-14 02:28N 26°05' W 079°23'5 9.3
2018-Jul-14 01:57N 26°02' W 079°26'4 9.6
2018-Jul-14 01:30N 25°59' W 079°30'3 7.0
2018-Jul-14 01:01N 25°56' W 079°32'4 8.4
2018-Jul-14 00:31N 25°53' W 079°36'510.8
2018-Jul-14 00:00N 25°49' W 079°40'612.5
2018-Jul-13 23:30N 25°46' W 079°46'611.3
2018-Jul-13 23:01N 25°46' W 079°52'611.9
2018-Jul-13 22:30N 25°46' W 079°59'510.5
2018-Jul-13 22:00N 25°46' W 080°05'5 9.1
2018-Jul-13 21:31N 25°46' W 080°10'0 0.7
2018-Jul-13 21:00N 25°47' W 080°10'0 0.1
2018-Jul-13 20:28N 25°47' W 080°10'0 0.0
2018-Jul-13 19:58N 25°47' W 080°10'0 0.0
2018-Jul-13 19:28N 25°47' W 080°10'0 0.0
2018-Jul-13 18:58N 25°47' W 080°10'0 0.0
2018-Jul-13 18:31N 25°47' W 080°10'0 0.0
2018-Jul-13 18:00N 25°47' W 080°10'0 0.0
2018-Jul-13 17:30N 25°47' W 080°10'0 0.0
2018-Jul-13 17:00N 25°47' W 080°10'0 0.0
2018-Jul-13 16:30N 25°47' W 080°10'0 0.0
2018-Jul-13 15:59N 25°47' W 080°10'0 0.0
2018-Jul-13 15:29N 25°47' W 080°10'0 0.0
2018-Jul-13 14:59N 25°47' W 080°10'0 0.0
2018-Jul-13 14:29N 25°47' W 080°10'0 0.0
2018-Jul-13 13:28N 25°47' W 080°10'0 0.0
2018-Jul-13 12:55N 25°47' W 080°10'0 0.0
2018-Jul-13 12:25N 25°47' W 080°10'0 0.0
2018-Jul-13 11:58N 25°47' W 080°10'0 0.0
2018-Jul-13 11:30N 25°47' W 080°10'0 0.0
2018-Jul-13 10:57N 25°47' W 080°10'0 0.0
2018-Jul-13 10:30N 25°47' W 080°10'0 0.0
2018-Jul-13 10:00N 25°47' W 080°10'0 0.2
2018-Jul-13 09:30N 25°47' W 080°10'4 7.2
2018-Jul-13 09:00N 25°46' W 080°06'612.2
2018-Jul-13 08:30N 25°47' W 079°59'5 9.4
2018-Jul-13 08:00N 25°47' W 079°54'4 9.0
2018-Jul-13 07:30N 25°48' W 079°49'4 8.8
2018-Jul-13 07:00N 25°48' W 079°44'4 7.9
2018-Jul-13 06:30N 25°49' W 079°40'4 8.1
2018-Jul-13 06:00N 25°52' W 079°37'4 8.5
2018-Jul-13 05:30N 25°55' W 079°34'4 8.7
2018-Jul-13 04:59N 25°58' W 079°30'4 8.8
2018-Jul-13 04:30N 26°01' W 079°27'4 8.8
2018-Jul-13 04:00N 26°04' W 079°23'4 7.6
2018-Jul-13 03:30N 26°07' W 079°20'4 8.4
2018-Jul-13 03:00N 26°09' W 079°16'5 8.2
2018-Jul-13 02:22N 26°11' W 079°11'73 7.8
2018-Jul-12 17:00N 25°48' W 077°54'47 4.7 200 / 71021.110.8 28.019.329.0
2018-Jul-12 07:00N 26°06' W 078°42'2515.0 130 / 91015.810.8 27.021.329.0
2018-Jul-12 05:19N 26°12' W 079°09'411.7
2018-Jul-12 04:56N 26°11' W 079°14'512.2
2018-Jul-12 04:30N 26°08' W 079°19'713.3
2018-Jul-12 03:59N 26°04' W 079°25'713.8
2018-Jul-12 03:30N 25°58' W 079°28'713.4
2018-Jul-12 03:00N 25°52' W 079°32'713.3
2018-Jul-12 02:30N 25°46' W 079°35'714.1
2018-Jul-12 02:00N 25°39' W 079°35'  
Track history (hours):
 
Tides and Currents Weather Stations Pressure Air Temp Water Temp Dewpoint Dewpoint Depression Visibility Wind Speed Wind Dir Waves Ship Positions

Norwegian Sky (Norway)

Operator: Norwegian Cruise Line

Last reported at 2018-Jul-22 02:00 UTC. Time now 2018-Jul-22 03:21 UTC.
Position N 26°06' W 077°48'.

Length 259 m; draft 8.2 m.

Type: Ship. MMSI: 308865000.

Wind from 200 at 10 knots

Barometer 1016.9 mb
Air temperature 28.4 ° C
Visibility: greater than 10.8 NM
Dewpoint 25.7 ° C
Water temperature 28.0 ° C

Date/timePositionNaut miles runAvg speedWind from/ knotsBaromVisibWave heightAir tempDewpointWater temp
2018-Jul-22 02:00N 26°06' W 077°48'83 3.5 200 / 101016.910.8 28.425.728.0
2018-Jul-21 02:34N 26°08' W 079°20'110.0
2018-Jul-21 02:30N 26°07' W 079°21'510.2
2018-Jul-21 02:00N 26°03' W 079°24'510.1
2018-Jul-21 01:30N 25°60' W 079°28'5 9.1
2018-Jul-21 01:00N 25°57' W 079°32'5 9.3
2018-Jul-21 00:30N 25°53' W 079°35'5 9.3
2018-Jul-21 00:00N 25°50' W 079°39'5 9.7
2018-Jul-20 23:30N 25°47' W 079°44'612.6
2018-Jul-20 23:00N 25°46' W 079°50'611.9
2018-Jul-20 22:30N 25°46' W 079°57'611.8
2018-Jul-20 22:00N 25°46' W 080°04'510.2
2018-Jul-20 21:30N 25°46' W 080°09'1 1.6
2018-Jul-20 21:00N 25°47' W 080°10'0 0.2
2018-Jul-20 20:29N 25°47' W 080°10'0 0.0
2018-Jul-20 19:58N 25°47' W 080°10'0 0.0
2018-Jul-20 19:28N 25°47' W 080°10'0 0.0
2018-Jul-20 18:58N 25°47' W 080°10'0 0.0
2018-Jul-20 18:28N 25°47' W 080°10'0 0.0
2018-Jul-20 18:00N 25°47' W 080°10'0 0.0
2018-Jul-20 17:24N 25°47' W 080°10'0 0.0
2018-Jul-20 17:00N 25°47' W 080°10'6654.0
2018-Jul-20 17:00N 25°42' W 080°06'611.8 190 / 81017.210.8 29.924.027.0
2018-Jul-20 16:30N 25°47' W 080°10'0 0.0
2018-Jul-20 16:00N 25°47' W 080°10'0 0.0
2018-Jul-20 15:29N 25°47' W 080°10'0 0.0
2018-Jul-20 14:59N 25°47' W 080°10'0 0.0
2018-Jul-20 14:29N 25°47' W 080°10'0 0.0
2018-Jul-20 13:59N 25°47' W 080°10'0 0.0
2018-Jul-20 13:29N 25°47' W 080°10'0 0.0
2018-Jul-20 12:58N 25°47' W 080°10'0 0.0
2018-Jul-20 12:28N 25°47' W 080°10'0 0.0
2018-Jul-20 11:58N 25°47' W 080°10'0 0.0
2018-Jul-20 11:28N 25°47' W 080°10'0 0.0
2018-Jul-20 11:00N 25°47' W 080°10'0 0.0
2018-Jul-20 10:24N 25°47' W 080°10'0 0.0
2018-Jul-20 10:00N 25°47' W 080°10'0 0.6
2018-Jul-20 09:30N 25°46' W 080°10'5 9.4
2018-Jul-20 09:00N 25°46' W 080°05'5 9.0
2018-Jul-20 08:29N 25°47' W 079°59'4 7.8
2018-Jul-20 08:00N 25°47' W 079°55'3 6.8
2018-Jul-20 07:30N 25°48' W 079°51'3 6.4
2018-Jul-20 07:00N 25°48' W 079°48'3 6.2
2018-Jul-20 06:29N 25°48' W 079°44'3 6.1
2018-Jul-20 06:00N 25°49' W 079°41'3 6.1
2018-Jul-20 05:30N 25°51' W 079°39'3 6.2
2018-Jul-20 05:00N 25°53' W 079°36'3 6.3
2018-Jul-20 04:30N 25°55' W 079°34'3 6.4
2018-Jul-20 04:00N 25°57' W 079°31'3 6.4
2018-Jul-20 03:29N 25°60' W 079°29'3 6.3
2018-Jul-20 02:59N 26°02' W 079°26'3 6.4
2018-Jul-20 02:29N 26°04' W 079°24'4 7.8
2018-Jul-20 02:00N 26°07' W 079°21'83 4.4
2018-Jul-19 07:00N 26°06' W 077°48'47 7.9 150 / 131016.110.8 26.020.230.0
2018-Jul-19 01:00N 25°24' W 077°24'25 4.1 130 / 81018.110.8 28.523.628.0
2018-Jul-18 19:00N 25°00' W 077°18'140 8.1 150 / 151019.810.8 31.022.730.0
2018-Jul-18 01:45N 26°18' W 079°27'3 8.9
2018-Jul-18 01:25N 26°21' W 079°28'6 8.4
2018-Jul-18 00:45N 26°26' W 079°27'3 8.8
2018-Jul-18 00:25N 26°29' W 079°25'38 3.7
2018-Jul-17 14:00N 26°30' W 078°42'28 3.9 190 / 171020.210.8 28.024.729.0
2018-Jul-17 07:00N 26°24' W 079°12'12 4.7 180 / 51019.0 28.023.930.0
2018-Jul-17 04:29N 26°25' W 079°25'4 6.4
2018-Jul-17 03:54N 26°21' W 079°26'3 6.6
2018-Jul-17 03:30N 26°19' W 079°28'3 6.8
2018-Jul-17 03:00N 26°15' W 079°28'3 6.8
2018-Jul-17 02:30N 26°12' W 079°29'3 6.7
2018-Jul-17 02:00N 26°10' W 079°32'3 7.0
2018-Jul-17 01:30N 26°06' W 079°33'3 7.0
2018-Jul-17 01:00N 26°03' W 079°35'4 8.2
2018-Jul-17 00:29N 25°59' W 079°37'1212.8
2018-Jul-16 23:30N 25°48' W 079°42'611.9
2018-Jul-16 23:00N 25°47' W 079°49'510.6
2018-Jul-16 22:30N 25°47' W 079°55'510.8
2018-Jul-16 22:00N 25°47' W 080°01'510.7
2018-Jul-16 21:31N 25°46' W 080°06'4 6.8
2018-Jul-16 20:59N 25°47' W 080°10'0 0.0
2018-Jul-16 20:29N 25°47' W 080°10'0 0.0
2018-Jul-16 19:59N 25°47' W 080°10'0 0.0
2018-Jul-16 19:23N 25°47' W 080°10'0 0.0
2018-Jul-16 18:58N 25°47' W 080°10'0 0.0
2018-Jul-16 18:28N 25°47' W 080°10'0 0.0
2018-Jul-16 17:58N 25°47' W 080°10'0 0.0
2018-Jul-16 17:28N 25°47' W 080°10'0 0.0
2018-Jul-16 16:55N 25°47' W 080°10'0 0.0
2018-Jul-16 16:30N 25°47' W 080°10'0 0.0
2018-Jul-16 16:00N 25°47' W 080°10'0 0.0
2018-Jul-16 15:30N 25°47' W 080°10'0 0.0
2018-Jul-16 14:57N 25°47' W 080°10'0 0.0
2018-Jul-16 14:30N 25°47' W 080°10'0 0.0
2018-Jul-16 14:00N 25°47' W 080°10'0 0.0
2018-Jul-16 13:30N 25°47' W 080°10'0 0.0
2018-Jul-16 12:59N 25°47' W 080°10'0 0.0
2018-Jul-16 12:29N 25°47' W 080°10'0 0.0
2018-Jul-16 11:56N 25°47' W 080°10'0 0.0
2018-Jul-16 11:29N 25°47' W 080°10'0 0.0
2018-Jul-16 10:58N 25°47' W 080°10'0 0.0
2018-Jul-16 10:28N 25°47' W 080°10'0 1.0
2018-Jul-16 10:01N 25°47' W 080°10'1 2.8
2018-Jul-16 09:31N 25°46' W 080°09'611.1
2018-Jul-16 09:00N 25°47' W 080°03'612.2
2018-Jul-16 08:31N 25°47' W 079°56'714.3
2018-Jul-16 08:01N 25°47' W 079°48'714.4
2018-Jul-16 07:31N 25°48' W 079°40'713.5
2018-Jul-16 07:00N 25°53' W 079°35'714.1
2018-Jul-16 06:30N 25°58' W 079°29'714.2
2018-Jul-16 06:00N 26°03' W 079°24'714.7
2018-Jul-16 05:30N 26°08' W 079°17'81 3.0
2018-Jul-15 03:00N 26°00' W 077°48'13 3.3 140 / 81018.510.8 27.019.830.0
2018-Jul-14 23:00N 25°48' W 077°54'0 0.0 070 / 71018.227.0 29.024.925.0
2018-Jul-14 16:00N 25°48' W 077°54'80 6.0 360 / 101018.010.8 28.023.930.0
2018-Jul-14 02:48N 26°08' W 079°20'310.5
2018-Jul-14 02:28N 26°05' W 079°23'5 9.3
2018-Jul-14 01:57N 26°02' W 079°26'4 9.6
2018-Jul-14 01:30N 25°59' W 079°30'3 7.0
2018-Jul-14 01:01N 25°56' W 079°32'4 8.4
2018-Jul-14 00:31N 25°53' W 079°36'510.8
2018-Jul-14 00:00N 25°49' W 079°40'612.5
2018-Jul-13 23:30N 25°46' W 079°46'611.3
2018-Jul-13 23:01N 25°46' W 079°52'611.9
2018-Jul-13 22:30N 25°46' W 079°59'510.5
2018-Jul-13 22:00N 25°46' W 080°05'5 9.1
2018-Jul-13 21:31N 25°46' W 080°10'0 0.7
2018-Jul-13 21:00N 25°47' W 080°10'0 0.1
2018-Jul-13 20:28N 25°47' W 080°10'0 0.0
2018-Jul-13 19:58N 25°47' W 080°10'0 0.0
2018-Jul-13 19:28N 25°47' W 080°10'0 0.0
2018-Jul-13 18:58N 25°47' W 080°10'0 0.0
2018-Jul-13 18:31N 25°47' W 080°10'0 0.0
2018-Jul-13 18:00N 25°47' W 080°10'0 0.0
2018-Jul-13 17:30N 25°47' W 080°10'0 0.0
2018-Jul-13 17:00N 25°47' W 080°10'0 0.0
2018-Jul-13 16:30N 25°47' W 080°10'0 0.0
2018-Jul-13 15:59N 25°47' W 080°10'0 0.0
2018-Jul-13 15:29N 25°47' W 080°10'0 0.0
2018-Jul-13 14:59N 25°47' W 080°10'0 0.0
2018-Jul-13 14:29N 25°47' W 080°10'0 0.0
2018-Jul-13 13:28N 25°47' W 080°10'0 0.0
2018-Jul-13 12:55N 25°47' W 080°10'0 0.0
2018-Jul-13 12:25N 25°47' W 080°10'0 0.0
2018-Jul-13 11:58N 25°47' W 080°10'0 0.0
2018-Jul-13 11:30N 25°47' W 080°10'0 0.0
2018-Jul-13 10:57N 25°47' W 080°10'0 0.0
2018-Jul-13 10:30N 25°47' W 080°10'0 0.0
2018-Jul-13 10:00N 25°47' W 080°10'0 0.2
2018-Jul-13 09:30N 25°47' W 080°10'4 7.2
2018-Jul-13 09:00N 25°46' W 080°06'612.2
2018-Jul-13 08:30N 25°47' W 079°59'5 9.4
2018-Jul-13 08:00N 25°47' W 079°54'4 9.0
2018-Jul-13 07:30N 25°48' W 079°49'4 8.8
2018-Jul-13 07:00N 25°48' W 079°44'4 7.9
2018-Jul-13 06:30N 25°49' W 079°40'4 8.1
2018-Jul-13 06:00N 25°52' W 079°37'4 8.5
2018-Jul-13 05:30N 25°55' W 079°34'4 8.7
2018-Jul-13 04:59N 25°58' W 079°30'4 8.8
2018-Jul-13 04:30N 26°01' W 079°27'4 8.8
2018-Jul-13 04:00N 26°04' W 079°23'4 7.6
2018-Jul-13 03:30N 26°07' W 079°20'4 8.4
2018-Jul-13 03:00N 26°09' W 079°16'5 8.2
2018-Jul-13 02:22N 26°11' W 079°11'73 7.8
2018-Jul-12 17:00N 25°48' W 077°54'47 4.7 200 / 71021.110.8 28.019.329.0
2018-Jul-12 07:00N 26°06' W 078°42'2515.0 130 / 91015.810.8 27.021.329.0
2018-Jul-12 05:19N 26°12' W 079°09'411.7
2018-Jul-12 04:56N 26°11' W 079°14'512.2
2018-Jul-12 04:30N 26°08' W 079°19'713.3
2018-Jul-12 03:59N 26°04' W 079°25'713.8
2018-Jul-12 03:30N 25°58' W 079°28'713.4
2018-Jul-12 03:00N 25°52' W 079°32'713.3
2018-Jul-12 02:30N 25°46' W 079°35'714.1
2018-Jul-12 02:00N 25°39' W 079°35'  

Dump ship's entire track history